sensor_id;sensor_type;location;lat;lon;timestamp;P1;durP1;ratioP1;P2;durP2;ratioP2
562;SDS011;266;49.514;8.294;2022-07-29T00:01:40;2.13;;;1.93;;
562;SDS011;266;49.514;8.294;2022-07-29T00:04:09;1.93;;;1.57;;
562;SDS011;266;49.514;8.294;2022-07-29T00:06:37;2.10;;;2.00;;
562;SDS011;266;49.514;8.294;2022-07-29T00:09:05;2.50;;;1.93;;
562;SDS011;266;49.514;8.294;2022-07-29T00:11:33;2.53;;;1.97;;
562;SDS011;266;49.514;8.294;2022-07-29T00:14:02;4.13;;;2.90;;
562;SDS011;266;49.514;8.294;2022-07-29T00:16:31;1.80;;;1.70;;
562;SDS011;266;49.514;8.294;2022-07-29T00:18:59;2.97;;;1.97;;
562;SDS011;266;49.514;8.294;2022-07-29T00:21:27;3.63;;;2.30;;
562;SDS011;266;49.514;8.294;2022-07-29T00:23:55;2.20;;;2.00;;
562;SDS011;266;49.514;8.294;2022-07-29T00:26:26;1.90;;;1.80;;
562;SDS011;266;49.514;8.294;2022-07-29T00:28:58;1.90;;;1.80;;
562;SDS011;266;49.514;8.294;2022-07-29T00:31:47;1.83;;;1.70;;
562;SDS011;266;49.514;8.294;2022-07-29T00:34:15;2.17;;;1.90;;
562;SDS011;266;49.514;8.294;2022-07-29T00:37:09;2.50;;;1.83;;
562;SDS011;266;49.514;8.294;2022-07-29T00:39:37;1.87;;;1.77;;
562;SDS011;266;49.514;8.294;2022-07-29T00:42:05;4.00;;;2.00;;
562;SDS011;266;49.514;8.294;2022-07-29T00:44:36;1.73;;;1.63;;
562;SDS011;266;49.514;8.294;2022-07-29T00:47:06;1.70;;;1.60;;
562;SDS011;266;49.514;8.294;2022-07-29T00:49:34;2.63;;;2.00;;
562;SDS011;266;49.514;8.294;2022-07-29T00:52:03;2.00;;;1.90;;
562;SDS011;266;49.514;8.294;2022-07-29T00:54:32;2.07;;;1.73;;
562;SDS011;266;49.514;8.294;2022-07-29T00:57:09;1.77;;;1.67;;
562;SDS011;266;49.514;8.294;2022-07-29T00:59:37;2.00;;;1.90;;
562;SDS011;266;49.514;8.294;2022-07-29T01:02:06;2.13;;;1.93;;
562;SDS011;266;49.514;8.294;2022-07-29T01:04:35;1.80;;;1.70;;
562;SDS011;266;49.514;8.294;2022-07-29T01:07:02;2.40;;;1.90;;
562;SDS011;266;49.514;8.294;2022-07-29T01:09:31;1.50;;;1.40;;
562;SDS011;266;49.514;8.294;2022-07-29T01:12:12;1.87;;;1.67;;
562;SDS011;266;49.514;8.294;2022-07-29T01:14:43;3.30;;;2.10;;
562;SDS011;266;49.514;8.294;2022-07-29T01:17:14;3.43;;;1.83;;
562;SDS011;266;49.514;8.294;2022-07-29T01:19:48;1.80;;;1.70;;
562;SDS011;266;49.514;8.294;2022-07-29T01:22:27;2.37;;;2.10;;
562;SDS011;266;49.514;8.294;2022-07-29T01:25:17;2.37;;;2.00;;
562;SDS011;266;49.514;8.294;2022-07-29T01:28:01;2.33;;;2.23;;
562;SDS011;266;49.514;8.294;2022-07-29T01:30:49;1.97;;;1.77;;
562;SDS011;266;49.514;8.294;2022-07-29T01:33:22;1.80;;;1.70;;
562;SDS011;266;49.514;8.294;2022-07-29T01:36:10;2.37;;;2.17;;
562;SDS011;266;49.514;8.294;2022-07-29T01:38:42;2.70;;;1.70;;
562;SDS011;266;49.514;8.294;2022-07-29T01:41:16;3.60;;;1.87;;
562;SDS011;266;49.514;8.294;2022-07-29T01:43:49;1.87;;;1.77;;
562;SDS011;266;49.514;8.294;2022-07-29T01:46:23;2.43;;;1.80;;
562;SDS011;266;49.514;8.294;2022-07-29T01:48:57;2.03;;;1.87;;
562;SDS011;266;49.514;8.294;2022-07-29T01:51:30;2.67;;;1.80;;
562;SDS011;266;49.514;8.294;2022-07-29T01:54:02;2.63;;;1.80;;
562;SDS011;266;49.514;8.294;2022-07-29T01:56:39;2.07;;;1.90;;
562;SDS011;266;49.514;8.294;2022-07-29T01:59:09;1.80;;;1.70;;
562;SDS011;266;49.514;8.294;2022-07-29T02:01:40;2.23;;;2.00;;
562;SDS011;266;49.514;8.294;2022-07-29T02:04:10;2.20;;;2.00;;
562;SDS011;266;49.514;8.294;2022-07-29T02:06:56;5.17;;;2.03;;
562;SDS011;266;49.514;8.294;2022-07-29T02:09:26;1.80;;;1.70;;
562;SDS011;266;49.514;8.294;2022-07-29T02:11:55;2.07;;;1.87;;
562;SDS011;266;49.514;8.294;2022-07-29T02:14:25;1.73;;;1.60;;
562;SDS011;266;49.514;8.294;2022-07-29T02:16:57;2.30;;;2.10;;
562;SDS011;266;49.514;8.294;2022-07-29T02:19:27;1.67;;;1.57;;
562;SDS011;266;49.514;8.294;2022-07-29T02:21:56;2.57;;;1.70;;
562;SDS011;266;49.514;8.294;2022-07-29T02:24:26;2.50;;;2.30;;
562;SDS011;266;49.514;8.294;2022-07-29T02:26:55;1.93;;;1.77;;
562;SDS011;266;49.514;8.294;2022-07-29T02:29:26;4.37;;;2.40;;
562;SDS011;266;49.514;8.294;2022-07-29T02:31:58;2.10;;;1.90;;
562;SDS011;266;49.514;8.294;2022-07-29T02:34:27;1.83;;;1.73;;
562;SDS011;266;49.514;8.294;2022-07-29T02:36:56;2.03;;;1.70;;
562;SDS011;266;49.514;8.294;2022-07-29T02:39:24;2.07;;;1.87;;
562;SDS011;266;49.514;8.294;2022-07-29T02:41:55;1.87;;;1.77;;
562;SDS011;266;49.514;8.294;2022-07-29T02:44:28;1.97;;;1.63;;
562;SDS011;266;49.514;8.294;2022-07-29T02:47:03;2.00;;;1.90;;
562;SDS011;266;49.514;8.294;2022-07-29T02:49:38;2.10;;;2.00;;
562;SDS011;266;49.514;8.294;2022-07-29T02:52:11;2.03;;;1.83;;
562;SDS011;266;49.514;8.294;2022-07-29T02:54:53;2.73;;;1.90;;
562;SDS011;266;49.514;8.294;2022-07-29T02:57:27;1.90;;;1.80;;
562;SDS011;266;49.514;8.294;2022-07-29T02:59:59;2.33;;;2.20;;
562;SDS011;266;49.514;8.294;2022-07-29T03:02:34;2.33;;;1.93;;
562;SDS011;266;49.514;8.294;2022-07-29T03:05:06;2.60;;;2.00;;
562;SDS011;266;49.514;8.294;2022-07-29T03:07:41;2.10;;;1.90;;
562;SDS011;266;49.514;8.294;2022-07-29T03:10:13;2.00;;;1.80;;
562;SDS011;266;49.514;8.294;2022-07-29T03:12:41;2.13;;;2.03;;
562;SDS011;266;49.514;8.294;2022-07-29T03:15:10;3.80;;;1.93;;
562;SDS011;266;49.514;8.294;2022-07-29T03:17:40;3.77;;;2.03;;
562;SDS011;266;49.514;8.294;2022-07-29T03:20:09;2.57;;;2.37;;
562;SDS011;266;49.514;8.294;2022-07-29T03:22:39;3.23;;;1.73;;
562;SDS011;266;49.514;8.294;2022-07-29T03:25:09;2.00;;;1.80;;
562;SDS011;266;49.514;8.294;2022-07-29T03:27:38;2.10;;;2.00;;
562;SDS011;266;49.514;8.294;2022-07-29T03:30:07;1.60;;;1.50;;
562;SDS011;266;49.514;8.294;2022-07-29T03:32:37;1.90;;;1.73;;
562;SDS011;266;49.514;8.294;2022-07-29T03:35:07;2.20;;;2.10;;
562;SDS011;266;49.514;8.294;2022-07-29T03:37:35;2.33;;;2.13;;
562;SDS011;266;49.514;8.294;2022-07-29T03:40:05;2.20;;;2.00;;
562;SDS011;266;49.514;8.294;2022-07-29T03:42:35;1.97;;;1.80;;
562;SDS011;266;49.514;8.294;2022-07-29T03:45:07;2.43;;;2.23;;
562;SDS011;266;49.514;8.294;2022-07-29T03:47:38;2.23;;;1.80;;
562;SDS011;266;49.514;8.294;2022-07-29T03:50:18;1.90;;;1.80;;
562;SDS011;266;49.514;8.294;2022-07-29T03:52:48;1.53;;;1.43;;
562;SDS011;266;49.514;8.294;2022-07-29T03:55:17;1.93;;;1.83;;
562;SDS011;266;49.514;8.294;2022-07-29T03:57:45;2.10;;;1.80;;
562;SDS011;266;49.514;8.294;2022-07-29T04:00:14;2.87;;;1.70;;
562;SDS011;266;49.514;8.294;2022-07-29T04:02:43;1.90;;;1.80;;
562;SDS011;266;49.514;8.294;2022-07-29T04:05:14;2.30;;;2.00;;
562;SDS011;266;49.514;8.294;2022-07-29T04:07:44;1.90;;;1.80;;
562;SDS011;266;49.514;8.294;2022-07-29T04:10:13;1.97;;;1.73;;
562;SDS011;266;49.514;8.294;2022-07-29T04:12:52;1.83;;;1.73;;
562;SDS011;266;49.514;8.294;2022-07-29T04:15:20;3.40;;;2.10;;
562;SDS011;266;49.514;8.294;2022-07-29T04:17:49;2.53;;;1.93;;
562;SDS011;266;49.514;8.294;2022-07-29T04:20:17;1.83;;;1.70;;
562;SDS011;266;49.514;8.294;2022-07-29T04:22:46;1.60;;;1.50;;
562;SDS011;266;49.514;8.294;2022-07-29T04:25:14;1.60;;;1.50;;
562;SDS011;266;49.514;8.294;2022-07-29T04:27:42;2.30;;;2.10;;
562;SDS011;266;49.514;8.294;2022-07-29T04:30:24;2.23;;;2.10;;
562;SDS011;266;49.514;8.294;2022-07-29T04:32:52;3.70;;;1.97;;
562;SDS011;266;49.514;8.294;2022-07-29T04:35:20;2.40;;;2.20;;
562;SDS011;266;49.514;8.294;2022-07-29T04:37:50;2.63;;;2.07;;
562;SDS011;266;49.514;8.294;2022-07-29T04:40:18;2.40;;;1.73;;
562;SDS011;266;49.514;8.294;2022-07-29T04:42:46;1.87;;;1.77;;
562;SDS011;266;49.514;8.294;2022-07-29T04:45:15;3.10;;;2.40;;
562;SDS011;266;49.514;8.294;2022-07-29T04:47:48;3.20;;;2.40;;
562;SDS011;266;49.514;8.294;2022-07-29T04:50:16;2.60;;;2.40;;
562;SDS011;266;49.514;8.294;2022-07-29T04:52:44;3.50;;;2.13;;
562;SDS011;266;49.514;8.294;2022-07-29T04:55:13;2.80;;;2.23;;
562;SDS011;266;49.514;8.294;2022-07-29T04:57:42;5.20;;;2.10;;
562;SDS011;266;49.514;8.294;2022-07-29T05:00:10;3.37;;;2.23;;
562;SDS011;266;49.514;8.294;2022-07-29T05:02:39;3.40;;;2.60;;
562;SDS011;266;49.514;8.294;2022-07-29T05:05:07;2.23;;;2.03;;
562;SDS011;266;49.514;8.294;2022-07-29T05:07:35;4.23;;;2.63;;
562;SDS011;266;49.514;8.294;2022-07-29T05:10:03;2.27;;;2.07;;
562;SDS011;266;49.514;8.294;2022-07-29T05:12:34;2.03;;;1.83;;
562;SDS011;266;49.514;8.294;2022-07-29T05:15:02;2.00;;;1.80;;
562;SDS011;266;49.514;8.294;2022-07-29T05:17:31;2.03;;;1.83;;
562;SDS011;266;49.514;8.294;2022-07-29T05:19:59;4.93;;;2.40;;
562;SDS011;266;49.514;8.294;2022-07-29T05:22:27;2.60;;;2.03;;
562;SDS011;266;49.514;8.294;2022-07-29T05:24:55;2.80;;;2.40;;
562;SDS011;266;49.514;8.294;2022-07-29T05:27:24;2.77;;;2.40;;
562;SDS011;266;49.514;8.294;2022-07-29T05:29:53;2.10;;;1.90;;
562;SDS011;266;49.514;8.294;2022-07-29T05:32:21;2.53;;;2.33;;
562;SDS011;266;49.514;8.294;2022-07-29T05:34:49;4.93;;;2.30;;
562;SDS011;266;49.514;8.294;2022-07-29T05:37:17;5.57;;;2.30;;
562;SDS011;266;49.514;8.294;2022-07-29T05:39:46;4.63;;;2.60;;
562;SDS011;266;49.514;8.294;2022-07-29T05:42:22;1.70;;;1.60;;
562;SDS011;266;49.514;8.294;2022-07-29T05:44:50;2.80;;;2.30;;
562;SDS011;266;49.514;8.294;2022-07-29T05:47:20;3.50;;;2.50;;
562;SDS011;266;49.514;8.294;2022-07-29T05:49:48;2.63;;;2.00;;
562;SDS011;266;49.514;8.294;2022-07-29T05:52:16;2.33;;;2.23;;
562;SDS011;266;49.514;8.294;2022-07-29T05:54:45;2.93;;;2.47;;
562;SDS011;266;49.514;8.294;2022-07-29T05:57:15;1.57;;;1.47;;
562;SDS011;266;49.514;8.294;2022-07-29T05:59:43;2.37;;;2.17;;
562;SDS011;266;49.514;8.294;2022-07-29T06:02:13;2.40;;;2.20;;
562;SDS011;266;49.514;8.294;2022-07-29T06:04:42;2.50;;;2.20;;
562;SDS011;266;49.514;8.294;2022-07-29T06:07:10;4.37;;;1.97;;
562;SDS011;266;49.514;8.294;2022-07-29T06:09:38;2.50;;;2.30;;
562;SDS011;266;49.514;8.294;2022-07-29T06:12:06;3.30;;;2.40;;
562;SDS011;266;49.514;8.294;2022-07-29T06:14:35;4.43;;;2.33;;
562;SDS011;266;49.514;8.294;2022-07-29T06:17:04;5.73;;;2.47;;
562;SDS011;266;49.514;8.294;2022-07-29T06:19:34;2.17;;;2.03;;
562;SDS011;266;49.514;8.294;2022-07-29T06:22:03;2.40;;;2.20;;
562;SDS011;266;49.514;8.294;2022-07-29T06:24:31;3.70;;;2.87;;
562;SDS011;266;49.514;8.294;2022-07-29T06:26:59;5.53;;;2.43;;
562;SDS011;266;49.514;8.294;2022-07-29T06:29:27;2.30;;;2.13;;
562;SDS011;266;49.514;8.294;2022-07-29T06:31:55;4.30;;;2.17;;
562;SDS011;266;49.514;8.294;2022-07-29T06:34:23;2.40;;;2.27;;
562;SDS011;266;49.514;8.294;2022-07-29T06:36:53;2.00;;;1.80;;
562;SDS011;266;49.514;8.294;2022-07-29T06:39:21;3.67;;;3.37;;
562;SDS011;266;49.514;8.294;2022-07-29T06:41:49;6.03;;;3.10;;
562;SDS011;266;49.514;8.294;2022-07-29T06:44:17;3.27;;;2.40;;
562;SDS011;266;49.514;8.294;2022-07-29T06:46:45;2.23;;;2.03;;
562;SDS011;266;49.514;8.294;2022-07-29T06:49:15;3.13;;;2.30;;
562;SDS011;266;49.514;8.294;2022-07-29T06:51:43;2.47;;;2.27;;
562;SDS011;266;49.514;8.294;2022-07-29T06:54:13;2.40;;;2.07;;
562;SDS011;266;49.514;8.294;2022-07-29T06:56:41;2.80;;;2.60;;
562;SDS011;266;49.514;8.294;2022-07-29T06:59:10;2.77;;;2.50;;
562;SDS011;266;49.514;8.294;2022-07-29T07:01:39;3.60;;;2.03;;
562;SDS011;266;49.514;8.294;2022-07-29T07:04:09;2.50;;;2.30;;
562;SDS011;266;49.514;8.294;2022-07-29T07:06:37;2.30;;;2.10;;
562;SDS011;266;49.514;8.294;2022-07-29T07:09:05;3.80;;;2.40;;
562;SDS011;266;49.514;8.294;2022-07-29T07:11:35;2.47;;;2.27;;
562;SDS011;266;49.514;8.294;2022-07-29T07:14:03;2.83;;;2.43;;
562;SDS011;266;49.514;8.294;2022-07-29T07:16:31;2.60;;;2.40;;
562;SDS011;266;49.514;8.294;2022-07-29T07:18:59;4.03;;;3.33;;
562;SDS011;266;49.514;8.294;2022-07-29T07:21:27;2.50;;;2.30;;
562;SDS011;266;49.514;8.294;2022-07-29T07:23:56;3.07;;;2.67;;
562;SDS011;266;49.514;8.294;2022-07-29T07:26:24;3.30;;;3.03;;
562;SDS011;266;49.514;8.294;2022-07-29T07:28:54;2.83;;;2.63;;
562;SDS011;266;49.514;8.294;2022-07-29T07:31:22;2.73;;;2.53;;
562;SDS011;266;49.514;8.294;2022-07-29T07:33:50;3.07;;;2.77;;
562;SDS011;266;49.514;8.294;2022-07-29T07:36:19;4.83;;;3.80;;
562;SDS011;266;49.514;8.294;2022-07-29T07:38:47;3.30;;;2.90;;
562;SDS011;266;49.514;8.294;2022-07-29T07:41:16;3.07;;;2.87;;
562;SDS011;266;49.514;8.294;2022-07-29T07:43:43;3.60;;;3.30;;
562;SDS011;266;49.514;8.294;2022-07-29T07:46:13;3.80;;;3.50;;
562;SDS011;266;49.514;8.294;2022-07-29T07:48:41;3.20;;;3.00;;
562;SDS011;266;49.514;8.294;2022-07-29T07:51:09;3.03;;;2.83;;
562;SDS011;266;49.514;8.294;2022-07-29T07:53:37;5.80;;;3.43;;
562;SDS011;266;49.514;8.294;2022-07-29T07:56:06;3.33;;;3.13;;
562;SDS011;266;49.514;8.294;2022-07-29T07:58:37;4.03;;;3.63;;
562;SDS011;266;49.514;8.294;2022-07-29T08:01:05;3.10;;;2.90;;
562;SDS011;266;49.514;8.294;2022-07-29T08:03:35;3.47;;;3.17;;
562;SDS011;266;49.514;8.294;2022-07-29T08:06:04;3.07;;;2.87;;
562;SDS011;266;49.514;8.294;2022-07-29T08:08:32;3.90;;;3.10;;
562;SDS011;266;49.514;8.294;2022-07-29T08:11:00;3.30;;;3.00;;
562;SDS011;266;49.514;8.294;2022-07-29T08:13:35;3.23;;;3.03;;
562;SDS011;266;49.514;8.294;2022-07-29T08:16:04;2.87;;;2.67;;
562;SDS011;266;49.514;8.294;2022-07-29T08:18:41;3.20;;;2.90;;
562;SDS011;266;49.514;8.294;2022-07-29T08:21:09;3.87;;;3.50;;
562;SDS011;266;49.514;8.294;2022-07-29T08:23:40;3.40;;;3.17;;
562;SDS011;266;49.514;8.294;2022-07-29T08:26:23;3.90;;;3.50;;
562;SDS011;266;49.514;8.294;2022-07-29T08:28:51;3.63;;;3.40;;
562;SDS011;266;49.514;8.294;2022-07-29T08:31:19;4.00;;;3.40;;
562;SDS011;266;49.514;8.294;2022-07-29T08:33:48;4.03;;;3.47;;
562;SDS011;266;49.514;8.294;2022-07-29T08:36:16;3.27;;;2.90;;
562;SDS011;266;49.514;8.294;2022-07-29T08:38:46;3.70;;;3.40;;
562;SDS011;266;49.514;8.294;2022-07-29T08:41:15;3.80;;;3.50;;
562;SDS011;266;49.514;8.294;2022-07-29T08:43:45;3.50;;;3.30;;
562;SDS011;266;49.514;8.294;2022-07-29T08:46:13;3.03;;;2.83;;
562;SDS011;266;49.514;8.294;2022-07-29T08:48:41;3.90;;;3.60;;
562;SDS011;266;49.514;8.294;2022-07-29T08:51:14;3.93;;;2.97;;
562;SDS011;266;49.514;8.294;2022-07-29T08:53:43;3.77;;;3.47;;
562;SDS011;266;49.514;8.294;2022-07-29T08:56:15;4.53;;;3.13;;
562;SDS011;266;49.514;8.294;2022-07-29T08:58:44;3.97;;;3.67;;
562;SDS011;266;49.514;8.294;2022-07-29T09:01:21;3.80;;;3.50;;
562;SDS011;266;49.514;8.294;2022-07-29T09:04:04;4.97;;;3.97;;
562;SDS011;266;49.514;8.294;2022-07-29T09:06:37;5.03;;;4.17;;
562;SDS011;266;49.514;8.294;2022-07-29T09:09:09;4.07;;;3.67;;
562;SDS011;266;49.514;8.294;2022-07-29T09:11:37;4.23;;;3.87;;
562;SDS011;266;49.514;8.294;2022-07-29T09:14:08;3.90;;;3.50;;
562;SDS011;266;49.514;8.294;2022-07-29T09:16:46;3.00;;;2.80;;
562;SDS011;266;49.514;8.294;2022-07-29T09:19:27;4.13;;;3.47;;
562;SDS011;266;49.514;8.294;2022-07-29T09:21:58;3.10;;;2.90;;
562;SDS011;266;49.514;8.294;2022-07-29T09:24:42;4.87;;;3.17;;
562;SDS011;266;49.514;8.294;2022-07-29T09:27:12;2.93;;;2.73;;
562;SDS011;266;49.514;8.294;2022-07-29T09:29:54;3.43;;;3.20;;
562;SDS011;266;49.514;8.294;2022-07-29T09:32:24;3.90;;;3.57;;
562;SDS011;266;49.514;8.294;2022-07-29T09:37:42;3.60;;;3.30;;
562;SDS011;266;49.514;8.294;2022-07-29T09:40:14;3.93;;;3.17;;
562;SDS011;266;49.514;8.294;2022-07-29T09:42:43;2.70;;;2.50;;
562;SDS011;266;49.514;8.294;2022-07-29T09:45:11;2.87;;;2.67;;
562;SDS011;266;49.514;8.294;2022-07-29T09:47:41;2.80;;;2.60;;
562;SDS011;266;49.514;8.294;2022-07-29T09:50:13;3.47;;;3.10;;
562;SDS011;266;49.514;8.294;2022-07-29T09:52:46;3.40;;;3.10;;
562;SDS011;266;49.514;8.294;2022-07-29T09:55:16;3.60;;;3.30;;
562;SDS011;266;49.514;8.294;2022-07-29T09:57:45;3.70;;;3.47;;
562;SDS011;266;49.514;8.294;2022-07-29T10:00:14;3.20;;;3.00;;
562;SDS011;266;49.514;8.294;2022-07-29T10:02:44;3.50;;;3.20;;
562;SDS011;266;49.514;8.294;2022-07-29T10:05:18;4.23;;;2.80;;
562;SDS011;266;49.514;8.294;2022-07-29T10:07:49;3.30;;;3.10;;
562;SDS011;266;49.514;8.294;2022-07-29T10:10:22;3.33;;;3.03;;
562;SDS011;266;49.514;8.294;2022-07-29T10:12:52;3.73;;;3.43;;
562;SDS011;266;49.514;8.294;2022-07-29T10:15:23;3.93;;;3.10;;
562;SDS011;266;49.514;8.294;2022-07-29T10:17:52;3.73;;;3.00;;
562;SDS011;266;49.514;8.294;2022-07-29T10:20:21;8.40;;;3.40;;
562;SDS011;266;49.514;8.294;2022-07-29T10:22:51;5.30;;;3.00;;
562;SDS011;266;49.514;8.294;2022-07-29T10:25:22;3.60;;;3.07;;
562;SDS011;266;49.514;8.294;2022-07-29T10:27:51;3.37;;;3.17;;
562;SDS011;266;49.514;8.294;2022-07-29T10:30:21;3.63;;;3.40;;
562;SDS011;266;49.514;8.294;2022-07-29T10:32:54;3.20;;;2.90;;
562;SDS011;266;49.514;8.294;2022-07-29T10:35:40;3.97;;;3.07;;
562;SDS011;266;49.514;8.294;2022-07-29T10:38:44;3.57;;;3.27;;
562;SDS011;266;49.514;8.294;2022-07-29T10:41:20;3.20;;;2.77;;
562;SDS011;266;49.514;8.294;2022-07-29T10:44:13;5.00;;;2.90;;
562;SDS011;266;49.514;8.294;2022-07-29T10:46:44;3.87;;;3.57;;
562;SDS011;266;49.514;8.294;2022-07-29T10:49:14;5.60;;;3.27;;
562;SDS011;266;49.514;8.294;2022-07-29T10:51:53;3.20;;;3.00;;
562;SDS011;266;49.514;8.294;2022-07-29T10:54:40;3.40;;;3.10;;
562;SDS011;266;49.514;8.294;2022-07-29T10:57:14;3.43;;;3.13;;
562;SDS011;266;49.514;8.294;2022-07-29T11:00:26;3.30;;;3.10;;
562;SDS011;266;49.514;8.294;2022-07-29T11:02:56;3.93;;;3.40;;
562;SDS011;266;49.514;8.294;2022-07-29T11:05:25;3.60;;;3.40;;
562;SDS011;266;49.514;8.294;2022-07-29T11:08:18;3.90;;;3.60;;
562;SDS011;266;49.514;8.294;2022-07-29T11:14:03;3.37;;;3.17;;
562;SDS011;266;49.514;8.294;2022-07-29T11:19:26;3.30;;;3.10;;
562;SDS011;266;49.514;8.294;2022-07-29T11:21:56;3.63;;;3.33;;
562;SDS011;266;49.514;8.294;2022-07-29T11:24:25;3.70;;;3.40;;
562;SDS011;266;49.514;8.294;2022-07-29T11:27:08;3.30;;;3.00;;
562;SDS011;266;49.514;8.294;2022-07-29T11:29:52;3.77;;;3.47;;
562;SDS011;266;49.514;8.294;2022-07-29T11:32:24;3.23;;;3.00;;
562;SDS011;266;49.514;8.294;2022-07-29T11:35:11;3.30;;;3.10;;
562;SDS011;266;49.514;8.294;2022-07-29T11:43:50;3.23;;;3.03;;
562;SDS011;266;49.514;8.294;2022-07-29T11:49:12;3.13;;;2.93;;
562;SDS011;266;49.514;8.294;2022-07-29T11:51:41;3.27;;;3.07;;
562;SDS011;266;49.514;8.294;2022-07-29T11:54:13;3.60;;;3.07;;
562;SDS011;266;49.514;8.294;2022-07-29T11:56:53;3.03;;;2.83;;
562;SDS011;266;49.514;8.294;2022-07-29T11:59:22;6.83;;;3.80;;
562;SDS011;266;49.514;8.294;2022-07-29T12:02:00;3.53;;;3.23;;
562;SDS011;266;49.514;8.294;2022-07-29T12:04:48;3.33;;;3.13;;
562;SDS011;266;49.514;8.294;2022-07-29T12:07:17;3.00;;;2.80;;
562;SDS011;266;49.514;8.294;2022-07-29T12:09:49;3.90;;;3.27;;
562;SDS011;266;49.514;8.294;2022-07-29T12:12:22;3.60;;;3.30;;
562;SDS011;266;49.514;8.294;2022-07-29T12:14:51;3.13;;;2.93;;
562;SDS011;266;49.514;8.294;2022-07-29T12:17:25;3.10;;;2.87;;
562;SDS011;266;49.514;8.294;2022-07-29T12:19:56;2.83;;;2.50;;
562;SDS011;266;49.514;8.294;2022-07-29T12:22:28;3.17;;;2.97;;
562;SDS011;266;49.514;8.294;2022-07-29T12:25:00;3.07;;;2.87;;
562;SDS011;266;49.514;8.294;2022-07-29T12:27:57;3.40;;;3.13;;
562;SDS011;266;49.514;8.294;2022-07-29T12:30:35;3.03;;;2.83;;
562;SDS011;266;49.514;8.294;2022-07-29T12:33:13;6.30;;;3.57;;
562;SDS011;266;49.514;8.294;2022-07-29T12:35:45;4.27;;;3.57;;
562;SDS011;266;49.514;8.294;2022-07-29T12:38:33;2.80;;;2.60;;
562;SDS011;266;49.514;8.294;2022-07-29T12:41:02;3.17;;;2.87;;
562;SDS011;266;49.514;8.294;2022-07-29T12:43:30;3.33;;;3.03;;
562;SDS011;266;49.514;8.294;2022-07-29T12:46:11;3.43;;;3.23;;
562;SDS011;266;49.514;8.294;2022-07-29T12:48:41;3.20;;;3.00;;
562;SDS011;266;49.514;8.294;2022-07-29T12:51:10;3.27;;;2.97;;
562;SDS011;266;49.514;8.294;2022-07-29T12:53:40;3.20;;;3.00;;
562;SDS011;266;49.514;8.294;2022-07-29T12:56:14;3.50;;;3.20;;
562;SDS011;266;49.514;8.294;2022-07-29T12:59:11;3.43;;;3.13;;
562;SDS011;266;49.514;8.294;2022-07-29T13:01:41;3.63;;;3.30;;
562;SDS011;266;49.514;8.294;2022-07-29T13:04:09;3.43;;;3.23;;
562;SDS011;266;49.514;8.294;2022-07-29T13:06:39;4.23;;;3.83;;
562;SDS011;266;49.514;8.294;2022-07-29T13:09:12;3.13;;;2.93;;
562;SDS011;266;49.514;8.294;2022-07-29T13:11:42;3.60;;;3.40;;
562;SDS011;266;49.514;8.294;2022-07-29T13:14:31;3.27;;;3.07;;
562;SDS011;266;49.514;8.294;2022-07-29T13:17:03;3.20;;;2.90;;
562;SDS011;266;49.514;8.294;2022-07-29T13:19:33;3.90;;;3.60;;
562;SDS011;266;49.514;8.294;2022-07-29T13:22:03;3.90;;;3.60;;
562;SDS011;266;49.514;8.294;2022-07-29T13:24:32;3.63;;;3.33;;
562;SDS011;266;49.514;8.294;2022-07-29T13:27:00;3.90;;;3.60;;
562;SDS011;266;49.514;8.294;2022-07-29T13:29:31;6.53;;;4.50;;
562;SDS011;266;49.514;8.294;2022-07-29T13:31:59;3.00;;;2.80;;
562;SDS011;266;49.514;8.294;2022-07-29T13:34:29;4.23;;;3.93;;
562;SDS011;266;49.514;8.294;2022-07-29T13:36:57;3.87;;;3.67;;
562;SDS011;266;49.514;8.294;2022-07-29T13:39:25;4.27;;;3.97;;
562;SDS011;266;49.514;8.294;2022-07-29T13:41:53;3.60;;;3.30;;
562;SDS011;266;49.514;8.294;2022-07-29T13:44:22;3.40;;;3.20;;
562;SDS011;266;49.514;8.294;2022-07-29T13:46:50;3.37;;;3.13;;
562;SDS011;266;49.514;8.294;2022-07-29T13:49:18;3.93;;;3.63;;
562;SDS011;266;49.514;8.294;2022-07-29T13:51:48;3.47;;;3.23;;
562;SDS011;266;49.514;8.294;2022-07-29T13:54:16;3.50;;;3.20;;
562;SDS011;266;49.514;8.294;2022-07-29T13:56:44;3.30;;;3.00;;
562;SDS011;266;49.514;8.294;2022-07-29T13:59:12;3.87;;;3.57;;
562;SDS011;266;49.514;8.294;2022-07-29T14:01:40;4.27;;;3.87;;
562;SDS011;266;49.514;8.294;2022-07-29T14:23:01;2.60;;;2.40;;
562;SDS011;266;49.514;8.294;2022-07-29T14:25:30;4.00;;;3.03;;
562;SDS011;266;49.514;8.294;2022-07-29T14:27:58;3.30;;;3.10;;
562;SDS011;266;49.514;8.294;2022-07-29T14:30:26;3.13;;;2.93;;
562;SDS011;266;49.514;8.294;2022-07-29T14:32:54;3.93;;;3.60;;
562;SDS011;266;49.514;8.294;2022-07-29T14:35:22;4.77;;;2.97;;
562;SDS011;266;49.514;8.294;2022-07-29T14:37:50;3.00;;;2.80;;
562;SDS011;266;49.514;8.294;2022-07-29T14:40:19;2.87;;;2.60;;
562;SDS011;266;49.514;8.294;2022-07-29T14:42:48;3.20;;;2.90;;
562;SDS011;266;49.514;8.294;2022-07-29T14:45:16;2.97;;;2.77;;
562;SDS011;266;49.514;8.294;2022-07-29T14:47:43;3.40;;;2.90;;
562;SDS011;266;49.514;8.294;2022-07-29T14:50:11;2.60;;;2.40;;
562;SDS011;266;49.514;8.294;2022-07-29T14:52:40;2.83;;;2.63;;
562;SDS011;266;49.514;8.294;2022-07-29T14:55:08;3.50;;;3.00;;
562;SDS011;266;49.514;8.294;2022-07-29T14:57:46;2.90;;;2.70;;
562;SDS011;266;49.514;8.294;2022-07-29T15:00:16;2.87;;;2.67;;
562;SDS011;266;49.514;8.294;2022-07-29T15:02:45;2.77;;;2.57;;
562;SDS011;266;49.514;8.294;2022-07-29T15:05:27;2.67;;;2.47;;
562;SDS011;266;49.514;8.294;2022-07-29T15:07:55;3.10;;;2.90;;
562;SDS011;266;49.514;8.294;2022-07-29T15:10:25;2.43;;;2.27;;
562;SDS011;266;49.514;8.294;2022-07-29T15:12:54;3.03;;;2.70;;
562;SDS011;266;49.514;8.294;2022-07-29T15:15:23;2.80;;;2.60;;
562;SDS011;266;49.514;8.294;2022-07-29T15:17:51;2.70;;;2.50;;
562;SDS011;266;49.514;8.294;2022-07-29T15:20:19;3.00;;;2.70;;
562;SDS011;266;49.514;8.294;2022-07-29T15:22:47;2.93;;;2.73;;
562;SDS011;266;49.514;8.294;2022-07-29T15:25:15;2.70;;;2.50;;
562;SDS011;266;49.514;8.294;2022-07-29T15:27:43;2.57;;;2.47;;
562;SDS011;266;49.514;8.294;2022-07-29T15:30:19;2.57;;;2.37;;
562;SDS011;266;49.514;8.294;2022-07-29T15:32:59;2.87;;;2.67;;
562;SDS011;266;49.514;8.294;2022-07-29T15:35:28;2.97;;;2.77;;
562;SDS011;266;49.514;8.294;2022-07-29T15:37:57;2.30;;;2.20;;
562;SDS011;266;49.514;8.294;2022-07-29T15:40:25;2.50;;;2.30;;
562;SDS011;266;49.514;8.294;2022-07-29T15:42:53;2.10;;;1.90;;
562;SDS011;266;49.514;8.294;2022-07-29T15:45:22;2.70;;;2.50;;
562;SDS011;266;49.514;8.294;2022-07-29T15:47:57;3.10;;;2.80;;
562;SDS011;266;49.514;8.294;2022-07-29T15:50:25;2.40;;;2.30;;
562;SDS011;266;49.514;8.294;2022-07-29T15:52:53;2.70;;;2.30;;
562;SDS011;266;49.514;8.294;2022-07-29T15:55:21;2.73;;;2.53;;
562;SDS011;266;49.514;8.294;2022-07-29T15:57:50;2.20;;;2.10;;
562;SDS011;266;49.514;8.294;2022-07-29T16:00:25;2.47;;;2.37;;
562;SDS011;266;49.514;8.294;2022-07-29T16:02:53;2.60;;;2.50;;
562;SDS011;266;49.514;8.294;2022-07-29T16:05:21;2.83;;;2.60;;
562;SDS011;266;49.514;8.294;2022-07-29T16:07:49;2.60;;;2.40;;
562;SDS011;266;49.514;8.294;2022-07-29T16:10:17;2.23;;;2.03;;
562;SDS011;266;49.514;8.294;2022-07-29T16:12:45;3.00;;;2.80;;
562;SDS011;266;49.514;8.294;2022-07-29T16:15:13;2.00;;;1.90;;
562;SDS011;266;49.514;8.294;2022-07-29T16:17:43;2.33;;;2.13;;
562;SDS011;266;49.514;8.294;2022-07-29T16:20:11;2.50;;;2.30;;
562;SDS011;266;49.514;8.294;2022-07-29T16:22:39;2.60;;;2.37;;
562;SDS011;266;49.514;8.294;2022-07-29T16:25:08;4.30;;;2.40;;
562;SDS011;266;49.514;8.294;2022-07-29T16:27:36;2.70;;;2.00;;
562;SDS011;266;49.514;8.294;2022-07-29T16:30:05;2.03;;;1.93;;
562;SDS011;266;49.514;8.294;2022-07-29T16:32:35;1.93;;;1.83;;
562;SDS011;266;49.514;8.294;2022-07-29T16:35:05;2.10;;;2.00;;
562;SDS011;266;49.514;8.294;2022-07-29T16:37:34;1.93;;;1.83;;
562;SDS011;266;49.514;8.294;2022-07-29T16:40:03;1.83;;;1.73;;
562;SDS011;266;49.514;8.294;2022-07-29T16:42:37;2.10;;;1.90;;
562;SDS011;266;49.514;8.294;2022-07-29T16:45:13;3.90;;;2.40;;
562;SDS011;266;49.514;8.294;2022-07-29T16:47:46;1.93;;;1.83;;